Time;durP1;ratioP1;P1;durP2;ratioP2;P2;SDS_P1;SDS_P2;PMS_P1;PMS_P2;Temp;Humidity;BMP_temperature;BMP_pressure;BME280_temperature;BME280_humidity;BME280_pressure;Samples;Min_cycle;Max_cycle;Signal;HPM_P1;HPM_P2
2020/12/20 00:00:37;;;;;;;4.95;1.60;;;8.30;99.90;;;;;;5075751;28;20016;-74
2020/12/20 00:03:09;;;;;;;11.27;1.90;;;8.30;99.90;;;;;;5076533;28;20021;-75
2020/12/20 00:05:35;;;;;;;4.57;1.65;;;8.30;99.90;;;;;;5076834;28;20020;-74
2020/12/20 00:08:00;;;;;;;4.72;1.75;;;8.30;99.90;;;;;;5076711;28;20108;-75
2020/12/20 00:10:26;;;;;;;5.20;2.28;;;8.30;99.90;;;;;;5075635;28;20021;-74
2020/12/20 00:12:51;;;;;;;5.68;2.15;;;8.40;99.90;;;;;;5076485;28;20017;-73
2020/12/20 00:15:19;;;;;;;11.15;1.83;;;8.40;99.90;;;;;;5075769;28;20024;-73
2020/12/20 00:17:48;;;;;;;4.07;1.23;;;8.40;99.90;;;;;;5075121;28;20024;-74
2020/12/20 00:20:17;;;;;;;4.75;1.33;;;8.40;99.90;;;;;;5075335;28;20025;-74
2020/12/20 00:22:43;;;;;;;4.22;1.75;;;8.50;99.90;;;;;;5074180;28;20028;-74
2020/12/20 00:25:09;;;;;;;9.43;1.50;;;8.50;99.90;;;;;;5075010;28;20389;-74
2020/12/20 00:27:34;;;;;;;6.95;1.35;;;8.50;99.90;;;;;;5071725;28;20025;-74
2020/12/20 00:30:00;;;;;;;4.93;1.10;;;8.50;99.90;;;;;;5056665;28;20029;-74
2020/12/20 00:32:26;;;;;;;9.90;2.22;;;8.50;99.90;;;;;;5055572;28;20021;-74
2020/12/20 00:34:51;;;;;;;5.40;1.90;;;8.50;99.90;;;;;;5055138;28;20140;-74
2020/12/20 00:37:17;;;;;;;5.85;1.35;;;8.50;99.90;;;;;;5063833;28;20044;-74
2020/12/20 00:39:42;;;;;;;6.78;1.75;;;8.50;99.90;;;;;;5074553;28;20032;-75
2020/12/20 00:42:08;;;;;;;4.03;1.42;;;8.50;99.90;;;;;;5075083;28;20059;-75
2020/12/20 00:44:35;;;;;;;3.83;1.80;;;8.50;99.90;;;;;;5075957;28;20579;-74
2020/12/20 00:47:03;;;;;;;4.10;1.50;;;8.50;99.90;;;;;;5069350;28;20536;-74
2020/12/20 00:49:30;;;;;;;3.28;1.20;;;8.50;99.90;;;;;;5070769;28;20029;-73
2020/12/20 00:51:58;;;;;;;5.25;2.45;;;8.60;99.90;;;;;;5075253;28;20031;-73
2020/12/20 00:54:25;;;;;;;10.50;1.90;;;8.60;99.90;;;;;;5075828;28;20037;-73
2020/12/20 00:56:50;;;;;;;13.50;1.73;;;8.70;99.90;;;;;;5077318;28;20027;-74
2020/12/20 00:59:16;;;;;;;5.65;2.45;;;8.70;99.90;;;;;;5076092;28;20076;-74
2020/12/20 01:01:41;;;;;;;6.07;1.17;;;8.70;99.90;;;;;;5076535;28;20032;-73
2020/12/20 01:04:07;;;;;;;4.47;1.50;;;8.80;99.90;;;;;;5075123;28;20059;-73
2020/12/20 01:06:33;;;;;;;8.82;1.75;;;8.80;99.90;;;;;;5076447;28;20020;-73
2020/12/20 01:09:00;;;;;;;8.82;1.58;;;8.80;99.90;;;;;;5076987;28;20489;-73
2020/12/20 01:11:26;;;;;;;2.35;0.70;;;8.80;99.90;;;;;;5076717;28;20024;-74
2020/12/20 01:13:52;;;;;;;8.93;1.33;;;8.80;99.90;;;;;;5092391;28;20024;-74
2020/12/20 01:16:19;;;;;;;15.07;2.17;;;8.90;99.90;;;;;;5076086;28;20078;-74
2020/12/20 01:18:45;;;;;;;9.23;1.90;;;8.90;99.90;;;;;;5077091;28;20381;-73
2020/12/20 01:21:11;;;;;;;8.75;1.33;;;8.90;99.90;;;;;;5076298;28;20082;-74
2020/12/20 01:23:37;;;;;;;9.18;1.38;;;9.00;99.90;;;;;;5074641;28;20028;-73
2020/12/20 01:26:03;;;;;;;6.85;1.42;;;9.00;99.90;;;;;;5076683;28;20035;-73
2020/12/20 01:28:30;;;;;;;3.35;1.35;;;9.00;99.90;;;;;;5076042;28;20158;-73
2020/12/20 01:30:56;;;;;;;12.30;1.80;;;9.00;99.90;;;;;;5076800;28;20420;-73
2020/12/20 01:33:22;;;;;;;6.53;1.42;;;9.00;99.90;;;;;;5076829;28;20020;-74
2020/12/20 01:35:47;;;;;;;5.57;1.10;;;8.90;99.90;;;;;;5075802;28;20381;-74
2020/12/20 01:38:13;;;;;;;5.07;1.77;;;8.90;99.90;;;;;;5076439;28;20020;-73
2020/12/20 01:40:39;;;;;;;5.30;1.00;;;8.90;99.90;;;;;;5074884;28;20028;-73
2020/12/20 01:43:04;;;;;;;9.13;2.00;;;8.90;99.90;;;;;;5076461;28;20370;-75
2020/12/20 01:45:30;;;;;;;13.63;2.05;;;8.90;99.90;;;;;;5076160;28;20017;-75
2020/12/20 01:47:56;;;;;;;6.78;0.88;;;8.90;99.90;;;;;;5074520;28;20393;-74
2020/12/20 01:50:22;;;;;;;8.23;1.15;;;8.90;99.90;;;;;;5074855;28;20024;-73
2020/12/20 01:52:48;;;;;;;5.85;1.30;;;9.00;99.90;;;;;;5074902;28;20485;-73
2020/12/20 01:55:17;;;;;;;8.48;2.15;;;8.90;99.90;;;;;;5074107;28;20115;-73
2020/12/20 01:57:42;;;;;;;5.38;2.05;;;8.90;99.90;;;;;;5074999;28;20017;-74
2020/12/20 02:00:08;;;;;;;9.95;1.23;;;8.90;99.90;;;;;;5073860;28;20421;-75
2020/12/20 02:02:34;;;;;;;5.35;1.40;;;8.90;99.90;;;;;;5075168;28;20615;-75
2020/12/20 02:04:59;;;;;;;16.08;1.83;;;8.80;99.90;;;;;;5079943;28;20071;-73
2020/12/20 02:07:25;;;;;;;3.58;1.02;;;8.80;99.90;;;;;;5080122;28;20074;-75
2020/12/20 02:09:50;;;;;;;6.82;1.30;;;8.80;99.90;;;;;;5078833;28;20019;-74
2020/12/20 02:12:16;;;;;;;8.30;1.25;;;8.80;99.90;;;;;;5077475;28;20028;-74
2020/12/20 02:14:41;;;;;;;6.65;1.05;;;8.80;99.90;;;;;;5078373;28;20062;-73
2020/12/20 02:17:07;;;;;;;6.22;1.45;;;8.70;99.90;;;;;;5078821;28;20021;-73
2020/12/20 02:19:34;;;;;;;6.75;1.27;;;8.70;99.90;;;;;;5076870;28;20043;-74
2020/12/20 02:22:00;;;;;;;8.48;1.60;;;8.70;99.90;;;;;;5079845;28;20017;-75
2020/12/20 02:24:25;;;;;;;4.45;1.20;;;8.70;99.90;;;;;;5078246;28;20035;-73
2020/12/20 02:26:51;;;;;;;14.57;1.95;;;8.70;99.90;;;;;;5077400;28;20028;-74
2020/12/20 02:29:17;;;;;;;6.78;1.17;;;8.60;99.90;;;;;;5078574;28;20393;-74
2020/12/20 02:31:43;;;;;;;4.85;1.13;;;8.60;99.90;;;;;;5078283;28;20488;-74
2020/12/20 02:34:11;;;;;;;7.18;1.15;;;8.60;99.90;;;;;;5078126;28;20025;-75
2020/12/20 02:36:37;;;;;;;6.93;0.85;;;8.50;99.90;;;;;;5079067;28;20021;-74
2020/12/20 02:39:12;;;;;;;8.10;1.70;;;8.50;99.90;;;;;;5077184;28;20023;-74
2020/12/20 02:41:37;;;;;;;5.20;1.90;;;8.50;99.90;;;;;;5077775;28;20021;-73
2020/12/20 02:44:04;;;;;;;5.28;1.42;;;8.50;99.90;;;;;;5077409;28;20020;-73
2020/12/20 02:46:30;;;;;;;12.98;1.40;;;8.50;99.90;;;;;;5077647;28;20063;-75
2020/12/20 02:48:56;;;;;;;8.30;1.20;;;8.50;99.90;;;;;;5078668;28;20035;-75
2020/12/20 02:51:23;;;;;;;9.43;2.33;;;8.50;99.90;;;;;;5077506;28;20029;-73
2020/12/20 02:53:49;;;;;;;6.65;2.03;;;8.40;99.90;;;;;;5077683;28;20480;-74
2020/12/20 02:56:14;;;;;;;3.55;1.38;;;8.50;99.90;;;;;;5076044;28;20020;-74
2020/12/20 02:58:40;;;;;;;5.43;2.28;;;8.50;99.90;;;;;;5077234;28;20469;-74
2020/12/20 03:01:06;;;;;;;11.18;2.35;;;8.50;99.90;;;;;;5077457;28;20103;-74
2020/12/20 03:03:32;;;;;;;5.88;1.23;;;8.50;99.90;;;;;;5076309;28;20132;-74
2020/12/20 03:05:57;;;;;;;4.00;1.30;;;8.50;99.90;;;;;;5077051;28;20500;-74
2020/12/20 03:08:23;;;;;;;12.10;1.75;;;8.50;99.90;;;;;;5076100;28;20424;-73
2020/12/20 03:10:48;;;;;;;10.27;1.35;;;8.50;99.90;;;;;;5077798;28;20032;-74
2020/12/20 03:13:14;;;;;;;7.45;1.33;;;8.50;99.90;;;;;;5075502;28;20070;-74
2020/12/20 03:15:43;;;;;;;10.00;1.92;;;8.50;99.90;;;;;;5077479;28;20021;-75
2020/12/20 03:18:09;;;;;;;4.50;0.68;;;8.50;99.90;;;;;;5079065;28;20021;-74
2020/12/20 03:20:35;;;;;;;5.53;1.25;;;8.40;99.90;;;;;;5076655;28;20013;-73
2020/12/20 03:23:00;;;;;;;9.63;2.08;;;8.40;99.90;;;;;;5076138;28;20024;-74
2020/12/20 03:25:26;;;;;;;8.45;2.10;;;8.40;99.90;;;;;;5078107;28;20462;-74
2020/12/20 03:27:52;;;;;;;6.63;1.33;;;8.40;99.90;;;;;;5075525;28;20036;-74
2020/12/20 03:30:18;;;;;;;4.65;1.23;;;8.40;99.90;;;;;;5077718;28;20020;-74
2020/12/20 03:32:43;;;;;;;3.28;0.98;;;8.30;99.90;;;;;;5077655;28;20059;-74
2020/12/20 03:35:09;;;;;;;5.13;1.40;;;8.40;99.90;;;;;;5093065;28;20024;-74
2020/12/20 03:37:35;;;;;;;4.95;1.40;;;8.30;99.90;;;;;;5076849;28;20027;-73
2020/12/20 03:40:02;;;;;;;5.00;1.13;;;8.30;99.90;;;;;;5076033;28;20027;-74
2020/12/20 03:42:27;;;;;;;3.40;1.13;;;8.30;99.90;;;;;;5091955;28;20050;-73
2020/12/20 03:44:53;;;;;;;5.82;1.60;;;8.30;99.90;;;;;;5075734;28;20108;-74
2020/12/20 03:47:18;;;;;;;2.88;0.93;;;8.30;99.90;;;;;;5077399;28;20111;-74
2020/12/20 03:49:44;;;;;;;5.38;1.20;;;8.30;99.90;;;;;;5075613;28;20540;-74
2020/12/20 03:52:12;;;;;;;3.88;1.33;;;8.30;99.90;;;;;;5077341;28;20070;-74
2020/12/20 03:54:38;;;;;;;6.63;1.10;;;8.30;99.90;;;;;;5075202;28;20028;-74
2020/12/20 03:57:03;;;;;;;7.18;1.80;;;8.30;99.90;;;;;;5076590;28;20023;-74
2020/12/20 03:59:29;;;;;;;10.40;1.80;;;8.20;99.90;;;;;;5075177;28;20056;-74
2020/12/20 04:01:54;;;;;;;5.68;1.33;;;8.30;99.90;;;;;;5077166;28;20033;-73
2020/12/20 04:04:20;;;;;;;5.22;1.60;;;8.30;99.90;;;;;;5077273;28;20099;-74
2020/12/20 04:06:45;;;;;;;6.43;1.17;;;8.30;99.90;;;;;;5077256;28;20021;-75
2020/12/20 04:09:11;;;;;;;10.02;1.55;;;8.30;99.90;;;;;;5075896;28;20035;-75
2020/12/20 04:11:37;;;;;;;7.15;2.25;;;8.30;99.90;;;;;;5076331;28;20028;-76
2020/12/20 04:14:02;;;;;;;5.75;1.48;;;8.30;99.90;;;;;;5076586;28;20473;-74
2020/12/20 04:16:28;;;;;;;6.45;1.10;;;8.30;99.90;;;;;;5077365;28;20067;-74
2020/12/20 04:18:53;;;;;;;7.18;1.40;;;8.30;99.90;;;;;;5077271;28;20017;-74
2020/12/20 04:21:19;;;;;;;5.00;1.73;;;8.20;99.90;;;;;;5076949;28;20080;-73
2020/12/20 04:23:45;;;;;;;10.90;1.30;;;8.20;99.90;;;;;;5075185;28;20025;-73
2020/12/20 04:26:10;;;;;;;5.50;1.90;;;8.20;99.90;;;;;;5074366;28;20028;-73
2020/12/20 04:28:36;;;;;;;12.07;2.40;;;8.20;99.90;;;;;;5074759;28;20504;-74
2020/12/20 04:31:01;;;;;;;5.78;1.40;;;8.20;99.90;;;;;;5076714;28;20417;-75
2020/12/20 04:33:27;;;;;;;12.05;2.00;;;8.20;99.90;;;;;;5076209;28;20078;-75
2020/12/20 04:35:52;;;;;;;9.02;2.08;;;8.20;99.90;;;;;;5075485;28;20020;-74
2020/12/20 04:38:18;;;;;;;10.00;3.10;;;8.20;99.90;;;;;;5074840;28;20032;-73
2020/12/20 04:40:43;;;;;;;5.63;1.70;;;8.20;99.90;;;;;;5075731;28;20024;-73
2020/12/20 04:43:13;;;;;;;7.50;1.55;;;8.20;99.90;;;;;;5075414;28;20028;-74
2020/12/20 04:45:39;;;;;;;7.15;1.90;;;8.20;99.90;;;;;;5074299;28;20163;-73
2020/12/20 04:48:05;;;;;;;5.35;1.35;;;8.20;99.90;;;;;;5076348;28;20052;-73
2020/12/20 04:50:32;;;;;;;6.35;1.38;;;8.20;99.90;;;;;;5075567;28;20052;-73
2020/12/20 04:52:59;;;;;;;5.30;1.38;;;8.20;99.90;;;;;;5074560;28;20025;-74
2020/12/20 04:55:34;;;;;;;9.93;1.92;;;8.20;99.90;;;;;;5075575;28;20047;-75
2020/12/20 04:58:00;;;;;;;9.27;2.28;;;8.30;99.90;;;;;;5075027;28;20401;-73
2020/12/20 05:00:25;;;;;;;7.88;1.65;;;8.20;99.90;;;;;;5075328;28;20013;-73
2020/12/20 05:02:51;;;;;;;5.43;1.17;;;8.20;99.90;;;;;;5075505;28;20107;-73
2020/12/20 05:05:16;;;;;;;6.90;1.55;;;8.20;99.90;;;;;;5074486;28;20122;-73
2020/12/20 05:07:44;;;;;;;6.05;1.60;;;8.10;99.90;;;;;;5074237;28;20024;-73
2020/12/20 05:10:09;;;;;;;5.57;1.52;;;8.20;99.90;;;;;;5073505;28;20028;-73
2020/12/20 05:12:36;;;;;;;12.60;2.25;;;8.20;99.90;;;;;;5075993;28;20035;-72
2020/12/20 05:15:24;;;;;;;10.18;2.38;;;8.20;99.90;;;;;;5074344;28;20032;-73
2020/12/20 05:18:07;;;;;;;5.07;1.65;;;8.20;99.90;;;;;;5074637;28;20090;-73
2020/12/20 05:20:41;;;;;;;7.45;1.40;;;8.20;99.90;;;;;;5074230;28;20020;-73
2020/12/20 05:23:07;;;;;;;7.10;1.50;;;8.30;99.90;;;;;;5075867;28;20428;-73
2020/12/20 05:25:34;;;;;;;6.93;1.30;;;8.20;99.90;;;;;;5074528;28;20020;-72
2020/12/20 05:28:09;;;;;;;8.02;1.58;;;8.20;99.90;;;;;;5075874;28;20036;-73
2020/12/20 05:30:36;;;;;;;13.77;2.50;;;8.20;99.90;;;;;;5076382;28;20088;-73
2020/12/20 05:33:02;;;;;;;9.43;1.90;;;8.20;99.90;;;;;;5076417;28;20025;-74
2020/12/20 05:35:28;;;;;;;5.53;1.13;;;8.20;99.90;;;;;;5076367;28;20028;-73
2020/12/20 05:37:53;;;;;;;8.90;1.48;;;8.20;99.90;;;;;;5076786;28;20022;-72
2020/12/20 05:40:33;;;;;;;15.77;2.08;;;8.20;99.90;;;;;;5080608;28;20025;-73
2020/12/20 05:43:11;;;;;;;9.15;1.48;;;8.20;99.90;;;;;;5079927;28;20035;-73
2020/12/20 05:45:37;;;;;;;9.23;1.40;;;8.20;99.90;;;;;;5078535;28;20025;-73
2020/12/20 05:48:16;;;;;;;5.70;1.15;;;8.20;99.90;;;;;;5078802;28;20028;-74
2020/12/20 05:50:59;;;;;;;10.00;1.75;;;8.20;99.90;;;;;;5080139;28;20415;-73
2020/12/20 05:53:32;;;;;;;4.75;1.15;;;8.20;99.90;;;;;;5078747;28;20024;-74
2020/12/20 05:55:59;;;;;;;6.75;1.17;;;8.20;99.90;;;;;;5080411;28;20062;-73
2020/12/20 05:58:33;;;;;;;6.63;1.17;;;8.20;99.90;;;;;;5079538;28;20035;-73
2020/12/20 06:01:00;;;;;;;6.35;1.33;;;8.20;99.90;;;;;;5078452;28;20021;-73
2020/12/20 06:03:26;;;;;;;7.18;1.48;;;8.20;99.90;;;;;;5079432;28;20025;-74
2020/12/20 06:05:51;;;;;;;7.25;1.45;;;8.20;99.90;;;;;;5078128;28;20081;-73
2020/12/20 06:08:19;;;;;;;8.88;2.60;;;8.20;99.90;;;;;;5080076;28;20024;-73
2020/12/20 06:10:53;;;;;;;9.40;1.73;;;8.30;99.90;;;;;;5079951;28;20029;-74
2020/12/20 06:13:23;;;;;;;6.50;1.55;;;8.20;99.90;;;;;;5078503;28;20031;-73
2020/12/20 06:15:56;;;;;;;10.57;2.00;;;8.30;99.90;;;;;;5079261;28;20039;-76
2020/12/20 06:18:29;;;;;;;10.82;1.83;;;8.30;99.90;;;;;;5079043;28;20105;-74
2020/12/20 06:20:57;;;;;;;6.15;1.75;;;8.30;99.90;;;;;;5079130;28;20021;-74
2020/12/20 06:23:28;;;;;;;8.23;1.60;;;8.30;99.90;;;;;;5079523;28;20020;-74
2020/12/20 06:25:55;;;;;;;8.05;1.48;;;8.30;99.90;;;;;;5077396;28;20135;-76
2020/12/20 06:28:26;;;;;;;10.05;1.42;;;8.30;99.90;;;;;;5078168;28;20013;-74
2020/12/20 06:30:56;;;;;;;4.95;0.70;;;8.30;99.90;;;;;;5078344;28;20025;-74
2020/12/20 06:33:30;;;;;;;6.97;1.77;;;8.30;99.90;;;;;;5077037;28;20486;-74
2020/12/20 06:35:56;;;;;;;6.10;1.23;;;8.30;99.90;;;;;;5079361;28;20028;-74
2020/12/20 06:38:23;;;;;;;7.32;1.02;;;8.30;99.90;;;;;;5078932;28;20074;-74
2020/12/20 06:40:49;;;;;;;8.32;1.60;;;8.30;99.90;;;;;;5078468;28;20134;-74
2020/12/20 06:43:27;;;;;;;10.27;2.58;;;8.20;99.90;;;;;;5077261;28;20069;-74
2020/12/20 06:45:53;;;;;;;11.07;1.67;;;8.20;99.90;;;;;;5076760;28;20112;-74
2020/12/20 06:48:36;;;;;;;5.85;1.27;;;8.20;99.90;;;;;;5077280;28;20116;-74
2020/12/20 06:51:04;;;;;;;10.23;2.28;;;8.20;99.90;;;;;;5078897;28;20020;-74
2020/12/20 06:53:45;;;;;;;9.27;1.17;;;8.20;99.90;;;;;;5077059;28;20021;-74
2020/12/20 06:56:22;;;;;;;6.63;0.90;;;8.20;99.90;;;;;;5076614;28;20327;-74
2020/12/20 06:58:52;;;;;;;6.68;1.73;;;8.20;99.90;;;;;;5077258;28;20023;-74
2020/12/20 07:01:37;;;;;;;11.75;1.50;;;8.10;99.90;;;;;;5077839;28;20062;-74
2020/12/20 07:04:16;;;;;;;10.68;1.73;;;8.10;99.90;;;;;;5076878;28;20027;-74
2020/12/20 07:07:02;;;;;;;6.72;1.15;;;8.10;99.90;;;;;;5076624;28;20409;-74
2020/12/20 07:09:34;;;;;;;8.82;2.85;;;8.10;99.90;;;;;;5076153;28;20054;-73
2020/12/20 07:11:59;;;;;;;5.93;1.05;;;8.10;99.90;;;;;;5078718;28;20032;-73
2020/12/20 07:14:25;;;;;;;8.65;2.08;;;8.10;99.90;;;;;;5076389;28;20389;-74
2020/12/20 07:16:51;;;;;;;7.10;0.98;;;8.00;99.90;;;;;;5077306;28;20370;-73
2020/12/20 07:19:21;;;;;;;15.05;1.30;;;8.10;99.90;;;;;;5077622;28;20016;-73
2020/12/20 07:21:53;;;;;;;13.15;1.02;;;8.00;99.90;;;;;;5078460;28;20507;-74
2020/12/20 07:24:32;;;;;;;7.80;0.85;;;8.00;99.90;;;;;;5076284;28;20028;-74
2020/12/20 07:27:04;;;;;;;12.38;2.47;;;7.90;99.90;;;;;;5122904;22;20068;-74
2020/12/20 07:29:32;;;;;;;8.52;1.30;;;7.90;99.90;;;;;;5097863;28;20032;-76
2020/12/20 07:31:59;;;;;;;12.15;1.73;;;7.90;99.90;;;;;;5097589;28;20103;-75
2020/12/20 07:34:25;;;;;;;11.18;1.45;;;7.90;99.90;;;;;;5097655;28;20097;-75
2020/12/20 07:36:52;;;;;;;8.35;1.98;;;7.90;99.90;;;;;;5097562;28;20095;-75
2020/12/20 07:39:17;;;;;;;6.00;1.77;;;7.90;99.90;;;;;;5097382;28;20043;-75
2020/12/20 07:41:43;;;;;;;13.13;1.35;;;7.90;99.90;;;;;;5097177;28;20020;-75
2020/12/20 07:44:10;;;;;;;11.02;1.42;;;7.90;99.90;;;;;;5097103;28;20027;-74
2020/12/20 07:46:36;;;;;;;9.10;1.25;;;7.90;99.90;;;;;;5097598;28;20115;-75
2020/12/20 07:49:11;;;;;;;8.43;1.17;;;7.90;99.90;;;;;;5096630;28;20024;-75
2020/12/20 07:51:37;;;;;;;8.82;1.40;;;7.90;99.90;;;;;;5097423;28;20079;-75
2020/12/20 07:54:10;;;;;;;12.60;1.70;;;7.90;99.90;;;;;;5097981;28;20036;-76
2020/12/20 07:56:38;;;;;;;13.95;2.63;;;7.90;99.90;;;;;;5096851;28;20400;-76
2020/12/20 07:59:12;;;;;;;14.15;1.60;;;7.80;99.90;;;;;;5097870;28;20091;-76
2020/12/20 08:01:39;;;;;;;9.95;1.73;;;7.90;99.90;;;;;;5096027;28;20024;-76
2020/12/20 08:04:09;;;;;;;5.43;1.35;;;7.90;99.90;;;;;;5095311;28;20074;-76
2020/12/20 08:06:39;;;;;;;10.30;1.85;;;7.90;99.90;;;;;;5097051;28;20444;-76
2020/12/20 08:09:08;;;;;;;5.13;1.42;;;7.90;99.90;;;;;;5096027;28;20028;-75
2020/12/20 08:11:34;;;;;;;9.50;1.25;;;7.80;99.90;;;;;;5098767;28;20034;-75
2020/12/20 08:14:05;;;;;;;14.35;2.55;;;7.80;99.90;;;;;;5098853;28;20028;-76
2020/12/20 08:16:32;;;;;;;10.55;1.73;;;7.80;99.90;;;;;;5098183;28;20063;-76
2020/12/20 08:19:04;;;;;;;11.45;1.60;;;7.80;99.90;;;;;;5096870;28;20043;-76
2020/12/20 08:21:38;;;;;;;8.02;1.73;;;7.70;99.90;;;;;;5096800;28;20020;-76
2020/12/20 08:24:05;;;;;;;5.07;1.15;;;7.80;99.90;;;;;;5098318;28;20129;-75
2020/12/20 08:26:34;;;;;;;8.05;1.17;;;7.80;99.90;;;;;;5097918;28;20074;-75
2020/12/20 08:29:03;;;;;;;10.65;1.63;;;7.90;99.90;;;;;;5093666;28;20030;-74
2020/12/20 08:31:30;;;;;;;9.25;1.23;;;7.90;99.90;;;;;;5095395;28;20028;-74
2020/12/20 08:33:57;;;;;;;15.48;2.13;;;7.90;99.90;;;;;;5094108;28;20055;-74
2020/12/20 08:36:24;;;;;;;5.13;1.08;;;8.00;99.90;;;;;;5094400;28;20389;-74
2020/12/20 08:38:50;;;;;;;10.60;0.82;;;8.00;99.90;;;;;;5095368;28;20020;-74
2020/12/20 08:41:21;;;;;;;13.77;2.05;;;8.10;99.90;;;;;;5096621;28;20475;-74
2020/12/20 08:43:47;;;;;;;8.43;2.00;;;8.10;99.90;;;;;;5096039;28;20103;-74
2020/12/20 08:46:32;;;;;;;10.15;1.63;;;8.10;99.90;;;;;;5094704;28;20055;-74
2020/12/20 08:49:21;;;;;;;13.98;2.03;;;8.10;99.90;;;;;;5095545;28;20062;-74
2020/12/20 08:51:49;;;;;;;9.60;1.40;;;9.70;99.90;;;;;;5096520;28;20020;-74
2020/12/20 08:54:28;;;;;;;11.88;1.98;;;8.10;99.90;;;;;;5095290;28;20036;-75
2020/12/20 08:57:12;;;;;;;7.13;1.83;;;8.20;99.90;;;;;;5096718;28;20016;-75
2020/12/20 08:59:42;;;;;;;8.70;1.20;;;8.20;99.90;;;;;;5094739;28;20021;-75
2020/12/20 09:02:16;;;;;;;10.13;1.52;;;8.20;99.90;;;;;;5095249;28;20500;-74
2020/12/20 09:04:53;;;;;;;13.38;1.90;;;8.20;99.90;;;;;;5094252;28;20026;-74
2020/12/20 09:07:30;;;;;;;14.60;2.65;;;8.20;99.90;;;;;;5094861;28;20542;-74
2020/12/20 09:10:03;;;;;;;10.80;2.53;;;8.30;99.90;;;;;;5094504;28;20028;-74
2020/12/20 09:12:29;;;;;;;7.45;1.17;;;8.30;99.90;;;;;;5094716;28;20465;-75
2020/12/20 09:14:59;;;;;;;8.82;1.38;;;8.40;99.90;;;;;;5095691;28;20024;-74
2020/12/20 09:17:35;;;;;;;18.55;2.47;;;8.40;99.90;;;;;;5094496;28;20032;-74
2020/12/20 09:20:07;;;;;;;17.67;2.83;;;8.40;99.90;;;;;;5095139;28;20138;-74
2020/12/20 09:22:37;;;;;;;14.07;2.83;;;8.50;99.90;;;;;;5095644;28;20028;-74
2020/12/20 09:25:03;;;;;;;16.35;2.28;;;8.50;99.90;;;;;;5095376;28;20032;-74
2020/12/20 09:27:29;;;;;;;11.73;1.60;;;8.50;99.90;;;;;;5093502;28;20036;-74
2020/12/20 09:29:54;;;;;;;11.98;1.85;;;8.60;99.90;;;;;;5094423;28;20111;-74
2020/12/20 09:32:20;;;;;;;15.40;3.10;;;8.70;99.90;;;;;;5095619;28;20170;-75
2020/12/20 09:34:45;;;;;;;11.93;2.17;;;8.70;99.90;;;;;;5095412;28;20073;-74
2020/12/20 09:37:11;;;;;;;9.00;1.60;;;8.70;99.90;;;;;;5095484;28;20028;-74
2020/12/20 09:39:56;;;;;;;17.70;2.75;;;8.70;99.90;;;;;;5095149;28;20078;-74
2020/12/20 09:42:22;;;;;;;10.60;1.80;;;8.80;99.90;;;;;;5095274;28;20488;-73
2020/12/20 09:44:48;;;;;;;10.68;2.17;;;8.80;99.90;;;;;;5096042;28;20020;-73
2020/12/20 09:47:13;;;;;;;5.97;1.08;;;8.90;99.90;;;;;;5095655;28;20039;-73
2020/12/20 09:49:39;;;;;;;12.77;2.33;;;8.90;99.90;;;;;;5095313;28;20054;-74
2020/12/20 09:52:07;;;;;;;5.90;0.80;;;8.90;99.90;;;;;;5095788;28;20441;-75
2020/12/20 09:54:33;;;;;;;21.63;2.40;;;9.00;99.90;;;;;;5096066;28;20032;-73
2020/12/20 09:56:58;;;;;;;7.22;0.85;;;9.00;99.90;;;;;;5095468;28;20024;-73
2020/12/20 09:59:24;;;;;;;11.88;1.80;;;9.00;99.90;;;;;;5095870;28;20031;-73
2020/12/20 10:01:49;;;;;;;16.83;1.50;;;9.10;99.90;;;;;;5095227;28;20134;-73
2020/12/20 10:04:15;;;;;;;9.43;1.65;;;9.20;99.90;;;;;;5095501;28;20023;-73
2020/12/20 10:06:40;;;;;;;22.33;3.15;;;9.30;99.90;;;;;;5094389;28;20107;-73
2020/12/20 10:09:06;;;;;;;13.38;1.75;;;9.30;99.90;;;;;;5095423;28;20469;-73
2020/12/20 10:11:31;;;;;;;11.55;1.85;;;9.40;99.90;;;;;;5095675;28;20020;-73
2020/12/20 10:13:57;;;;;;;9.25;1.67;;;9.60;99.90;;;;;;5095477;28;20047;-73
2020/12/20 10:16:23;;;;;;;7.38;1.50;;;9.70;99.90;;;;;;5094502;28;20496;-73
2020/12/20 10:18:49;;;;;;;11.77;2.58;;;9.80;99.90;;;;;;5093942;28;20045;-73
2020/12/20 10:21:15;;;;;;;6.75;2.10;;;9.90;99.90;;;;;;5095426;28;20024;-74
2020/12/20 10:23:41;;;;;;;18.08;2.58;;;10.10;99.90;;;;;;5096219;28;20020;-74
2020/12/20 10:26:10;;;;;;;12.45;1.50;;;10.10;99.90;;;;;;5099422;28;20417;-74
2020/12/20 10:28:37;;;;;;;11.20;2.08;;;10.20;99.90;;;;;;5099650;28;20028;-77
2020/12/20 10:31:02;;;;;;;14.50;1.48;;;10.20;99.90;;;;;;5099592;28;20031;-75
2020/12/20 10:33:28;;;;;;;11.27;2.05;;;10.20;99.90;;;;;;5098147;28;20016;-74
2020/12/20 10:35:53;;;;;;;16.42;2.45;;;10.10;99.90;;;;;;5096011;28;20030;-75
2020/12/20 10:38:19;;;;;;;6.90;1.55;;;10.10;99.90;;;;;;5096077;28;20024;-75
2020/12/20 10:40:44;;;;;;;15.35;3.20;;;10.10;99.90;;;;;;5097708;28;20434;-75
2020/12/20 10:43:10;;;;;;;14.30;3.45;;;10.10;99.90;;;;;;5096986;28;20024;-75
2020/12/20 10:45:35;;;;;;;17.65;2.78;;;10.10;99.90;;;;;;5097357;28;20024;-75
2020/12/20 10:48:01;;;;;;;12.18;2.35;;;13.10;99.90;;;;;;5099260;28;20026;-75
2020/12/20 10:50:27;;;;;;;14.77;2.83;;;10.20;99.90;;;;;;5097701;28;20057;-75
2020/12/20 10:52:52;;;;;;;9.07;2.80;;;10.20;99.90;;;;;;5098598;28;20020;-76
2020/12/20 10:55:18;;;;;;;11.90;2.00;;;10.10;99.90;;;;;;5099107;28;20028;-75
2020/12/20 10:57:43;;;;;;;9.77;2.00;;;10.20;99.90;;;;;;5097515;28;20024;-75
2020/12/20 11:00:09;;;;;;;8.88;2.83;;;10.20;99.90;;;;;;5098630;28;20461;-74
2020/12/20 11:02:34;;;;;;;10.18;2.13;;;10.20;99.90;;;;;;5098400;28;20105;-74
2020/12/20 11:05:00;;;;;;;13.50;1.83;;;10.20;99.90;;;;;;5098088;28;20097;-74
2020/12/20 11:07:25;;;;;;;17.58;2.50;;;10.20;99.90;;;;;;5097506;28;20028;-74
2020/12/20 11:09:51;;;;;;;7.50;1.98;;;10.30;99.90;;;;;;5098286;28;20070;-74
2020/12/20 11:12:17;;;;;;;12.25;2.60;;;10.30;99.90;;;;;;5098775;28;20034;-74
2020/12/20 11:14:42;;;;;;;11.50;2.28;;;10.30;99.90;;;;;;5096727;28;20028;-74
2020/12/20 11:17:11;;;;;;;8.63;2.00;;;10.30;99.90;;;;;;5097969;28;20024;-74
2020/12/20 11:19:36;;;;;;;7.55;2.08;;;10.20;99.90;;;;;;5097732;28;20039;-75
2020/12/20 11:22:01;;;;;;;12.10;2.25;;;10.20;99.90;;;;;;5097238;28;20028;-74
2020/12/20 11:24:27;;;;;;;15.20;3.88;;;10.20;99.90;;;;;;5097470;28;20542;-75
2020/12/20 11:26:54;;;;;;;9.57;2.70;;;10.30;99.90;;;;;;5096689;28;20066;-73
2020/12/20 11:29:20;;;;;;;7.60;3.03;;;10.20;99.90;;;;;;5096146;28;20039;-75
2020/12/20 11:31:46;;;;;;;15.70;4.13;;;10.30;99.90;;;;;;5097861;28;20024;-75
2020/12/20 11:34:13;;;;;;;9.77;3.03;;;10.30;99.90;;;;;;5098141;28;20024;-75
2020/12/20 11:36:39;;;;;;;9.02;3.33;;;10.30;99.90;;;;;;5097193;28;20047;-76
2020/12/20 11:39:07;;;;;;;8.27;3.03;;;10.30;99.90;;;;;;5097107;28;20016;-75
2020/12/20 11:41:32;;;;;;;14.45;3.47;;;10.30;99.90;;;;;;5097260;28;20373;-72
2020/12/20 11:43:59;;;;;;;18.23;4.72;;;10.30;99.90;;;;;;5096575;28;20028;-75
2020/12/20 11:46:25;;;;;;;21.80;4.20;;;10.30;99.90;;;;;;5097934;28;20024;-76
2020/12/20 11:48:51;;;;;;;15.10;3.40;;;10.30;99.90;;;;;;5097680;28;20024;-77
2020/12/20 11:51:17;;;;;;;9.60;3.40;;;10.30;99.90;;;;;;5097500;28;20028;-77
2020/12/20 11:53:43;;;;;;;16.13;3.97;;;10.30;99.90;;;;;;5097679;28;20024;-77
2020/12/20 11:56:10;;;;;;;13.90;4.28;;;10.20;99.90;;;;;;5097374;28;20073;-77
2020/12/20 11:58:39;;;;;;;12.48;4.00;;;10.20;99.90;;;;;;5097292;28;20545;-77
2020/12/20 12:01:06;;;;;;;10.52;3.95;;;10.20;99.90;;;;;;5095338;28;20024;-77
2020/12/20 12:03:32;;;;;;;15.73;4.45;;;10.20;99.90;;;;;;5095382;28;20012;-77
2020/12/20 12:05:59;;;;;;;13.88;3.85;;;10.10;99.90;;;;;;5095068;28;20028;-77
2020/12/20 12:08:25;;;;;;;14.35;5.25;;;10.10;99.90;;;;;;5094610;28;20377;-77
2020/12/20 12:10:51;;;;;;;16.55;5.72;;;10.10;99.90;;;;;;5095174;28;20022;-77
2020/12/20 12:13:17;;;;;;;16.35;5.60;;;10.00;99.90;;;;;;5095830;28;20027;-77
2020/12/20 12:15:44;;;;;;;17.95;5.35;;;10.00;99.90;;;;;;5095317;28;20028;-77
2020/12/20 12:18:10;;;;;;;17.90;5.50;;;10.00;99.90;;;;;;5095002;28;20053;-77
2020/12/20 12:20:39;;;;;;;17.40;5.38;;;10.00;99.90;;;;;;5094831;28;20388;-77
2020/12/20 12:23:05;;;;;;;15.48;5.80;;;10.00;99.90;;;;;;5095833;28;20016;-77
2020/12/20 12:25:31;;;;;;;21.77;5.82;;;10.00;99.90;;;;;;5094328;28;20028;-77
2020/12/20 12:27:57;;;;;;;20.08;5.63;;;10.00;99.90;;;;;;5096643;28;20031;-77
2020/12/20 12:30:23;;;;;;;19.38;5.20;;;10.00;99.90;;;;;;5094694;28;20019;-75
2020/12/20 12:32:52;;;;;;;13.32;5.88;;;10.00;99.90;;;;;;5096496;28;20028;-75
2020/12/20 12:35:23;;;;;;;24.23;5.97;;;10.00;99.90;;;;;;5096234;28;20027;-77
2020/12/20 12:37:50;;;;;;;17.42;5.93;;;10.00;99.90;;;;;;5095550;28;20012;-76
2020/12/20 12:40:16;;;;;;;18.58;5.80;;;10.00;99.90;;;;;;5095977;28;20109;-77
2020/12/20 12:42:42;;;;;;;49.28;7.00;;;10.00;99.90;;;;;;5095865;28;20042;-78
2020/12/20 12:45:08;;;;;;;18.25;4.60;;;10.10;99.90;;;;;;5095734;28;20031;-77
2020/12/20 12:47:34;;;;;;;15.60;4.70;;;10.10;99.90;;;;;;5095599;28;20123;-77
2020/12/20 12:50:00;;;;;;;17.17;4.75;;;10.10;99.90;;;;;;5096086;28;20058;-77
2020/12/20 12:52:25;;;;;;;21.48;3.95;;;10.10;99.90;;;;;;5094034;28;20024;-77